^^
Meteo Knjazevac Station Historical Data
Daily Summary for May 12, 2021 Units:  Both    English   Metric
Daily Weekly Monthly Yearly Custom
  High: Low: Average:
Temperature: 60.2 °F /  15.7 °C 46.2 °F /  7.9 °C 50.5 °F /  10.3 °C
Dew Point: 50.8 °F /  10.4 °C 42.8 °F /  6 °C 45.5 °F /  7.5 °C
Humidity: 90% 71% 83%
Wind Speed: 5mph /  8km/h - 1mph /  1.6km/h
Wind Gust: 9mph /  14.5km/h - -
Wind- - South
Pressure: 29.97 in /  1014.8 hPa 29.90 in /  1012.4 hPa -
Precipitation: 0.00 in /  0 mm    
Historical Graphs
 
 
Tabular Data for May 12, 2021
Time Temperature Dew Point Pressure Wind Wind Speed Wind Gust Humidity Rainfall Rate (Hourly) solar Conditions
00:00 55.8 °F /  13.2 °C 48 °F /  8.9 °C 29.97in /  1014.8hPa SSE 1mph /  1.6km/h 5mph /  8km/h 75% 0.00in /  0mm 0 W/m2
00:10 55.4 °F /  13 °C 47.6 °F /  8.7 °C 29.97in /  1014.8hPa SE 1mph /  1.6km/h 5mph /  8km/h 75% 0.00in /  0mm 0 W/m2
00:20 55.2 °F /  12.9 °C 47.8 °F /  8.8 °C 29.97in /  1014.8hPa Calm   3mph /  4.8km/h 76% 0.00in /  0mm 0 W/m2
00:30 54.9 °F /  12.7 °C 47.8 °F /  8.8 °C 29.97in /  1014.8hPa NNW 1mph /  1.6km/h 3mph /  4.8km/h 77% 0.00in /  0mm 0 W/m2
00:40 54.5 °F /  12.5 °C 47.4 °F /  8.6 °C 29.97in /  1014.8hPa Calm   3mph /  4.8km/h 77% 0.00in /  0mm 0 W/m2
00:50 54 °F /  12.2 °C 47.3 °F /  8.5 °C 29.97in /  1014.8hPa SSE 1mph /  1.6km/h 3mph /  4.8km/h 78% 0.00in /  0mm 0 W/m2
01:00 53.7 °F /  12.1 °C 47 °F /  8.3 °C 29.97in /  1014.8hPa Calm   3mph /  4.8km/h 78% 0.00in /  0mm 0 W/m2
01:20 53.1 °F /  11.7 °C 46.7 °F /  8.2 °C 29.97in /  1014.8hPa Calm   4mph /  6.4km/h 79% 0.00in /  0mm 0 W/m2
01:30 52.9 °F /  11.6 °C 46.9 °F /  8.3 °C 29.97in /  1014.8hPa Calm   2mph /  3.2km/h 80% 0.00in /  0mm 0 W/m2
02:20 51.4 °F /  10.8 °C 45.8 °F /  7.7 °C 29.96in /  1014.4hPa Calm   4mph /  6.4km/h 81% 0.00in /  0mm 0 W/m2
02:30 51.3 °F /  10.7 °C 46 °F /  7.8 °C 29.96in /  1014.4hPa Calm   1mph /  1.6km/h 82% 0.00in /  0mm 0 W/m2
02:40 50.9 °F /  10.5 °C 45.6 °F /  7.6 °C 29.96in /  1014.4hPa Calm   2mph /  3.2km/h 82% 0.00in /  0mm 0 W/m2
02:50 50.5 °F /  10.3 °C 45.6 °F /  7.6 °C 29.96in /  1014.4hPa West 2mph /  3.2km/h 3mph /  4.8km/h 83% 0.00in /  0mm 0 W/m2
03:00 50.4 °F /  10.2 °C 45.7 °F /  7.6 °C 29.95in /  1014.1hPa NNW 1mph /  1.6km/h 3mph /  4.8km/h 84% 0.00in /  0mm 0 W/m2
03:10 50.2 °F /  10.1 °C 45.5 °F /  7.5 °C 29.96in /  1014.4hPa Calm   3mph /  4.8km/h 84% 0.00in /  0mm 0 W/m2
03:20 50 °F /  10 °C 45.4 °F /  7.4 °C 29.95in /  1014.1hPa Calm   2mph /  3.2km/h 84% 0.00in /  0mm 0 W/m2
03:30 49.8 °F /  9.9 °C 45.2 °F /  7.3 °C 29.95in /  1014.1hPa Calm   2mph /  3.2km/h 84% 0.00in /  0mm 0 W/m2
03:40 49.5 °F /  9.7 °C 44.8 °F /  7.1 °C 29.95in /  1014.1hPa WNW 2mph /  3.2km/h 3mph /  4.8km/h 84% 0.00in /  0mm 0 W/m2
03:50 49.3 °F /  9.6 °C 45 °F /  7.2 °C 29.95in /  1014.1hPa Calm   3mph /  4.8km/h 85% 0.00in /  0mm 0 W/m2
04:00 49.1 °F /  9.5 °C 44.8 °F /  7.1 °C 29.95in /  1014.1hPa Calm   1mph /  1.6km/h 85% 0.00in /  0mm 0 W/m2
04:10 48.6 °F /  9.2 °C 44.3 °F /  6.8 °C 29.95in /  1014.1hPa Calm   2mph /  3.2km/h 85% 0.00in /  0mm 0 W/m2
04:20 48.3 °F /  9.1 °C 44 °F /  6.7 °C 29.95in /  1014.1hPa NW 1mph /  1.6km/h 2mph /  3.2km/h 85% 0.00in /  0mm 0 W/m2
04:30 47.7 °F /  8.7 °C 43.7 °F /  6.5 °C 29.95in /  1014.1hPa WNW 2mph /  3.2km/h 4mph /  6.4km/h 86% 0.00in /  0mm 0 W/m2
04:40 47.7 °F /  8.7 °C 43.7 °F /  6.5 °C 29.95in /  1014.1hPa Calm   4mph /  6.4km/h 86% 0.00in /  0mm 0 W/m2
04:50 47.5 °F /  8.6 °C 43.5 °F /  6.4 °C 29.95in /  1014.1hPa Calm   2mph /  3.2km/h 86% 0.00in /  0mm 0 W/m2
05:00 47.3 °F /  8.5 °C 43.3 °F /  6.3 °C 29.95in /  1014.1hPa Calm   2mph /  3.2km/h 86% 0.00in /  0mm 0 W/m2
05:10 47.1 °F /  8.4 °C 43.1 °F /  6.2 °C 29.95in /  1014.1hPa Calm   2mph /  3.2km/h 86% 0.00in /  0mm 3 W/m2
05:20 46.8 °F /  8.2 °C 42.8 °F /  6 °C 29.95in /  1014.1hPa WNW 1mph /  1.6km/h 3mph /  4.8km/h 86% 0.00in /  0mm 8 W/m2
05:30 46.6 °F /  8.1 °C 43.2 °F /  6.2 °C 29.95in /  1014.1hPa North 1mph /  1.6km/h 3mph /  4.8km/h 88% 0.00in /  0mm 16 W/m2
05:40 46.2 °F /  7.9 °C 42.9 °F /  6.1 °C 29.95in /  1014.1hPa WNW 1mph /  1.6km/h 3mph /  4.8km/h 88% 0.00in /  0mm 27 W/m2
05:50 46.4 °F /  8 °C 43.3 °F /  6.3 °C 29.94in /  1013.8hPa Calm   3mph /  4.8km/h 89% 0.00in /  0mm 40 W/m2
06:00 46.5 °F /  8.1 °C 43.1 °F /  6.2 °C 29.94in /  1013.8hPa Calm   2mph /  3.2km/h 88% 0.00in /  0mm 58 W/m2
06:10 46.2 °F /  7.9 °C 42.9 °F /  6.1 °C 29.94in /  1013.8hPa Calm   2mph /  3.2km/h 88% 0.00in /  0mm 50 W/m2
06:20 46.2 °F /  7.9 °C 43.2 °F /  6.2 °C 29.94in /  1013.8hPa WNW 1mph /  1.6km/h 3mph /  4.8km/h 89% 0.00in /  0mm 68 W/m2
06:30 46.4 °F /  8 °C 43.3 °F /  6.3 °C 29.94in /  1013.8hPa West 1mph /  1.6km/h 3mph /  4.8km/h 89% 0.00in /  0mm 135 W/m2
06:40 46.7 °F /  8.2 °C 43.9 °F /  6.6 °C 29.93in /  1013.4hPa NW 2mph /  3.2km/h 5mph /  8km/h 90% 0.00in /  0mm 153 W/m2
06:50 46.9 °F /  8.3 °C 44.2 °F /  6.8 °C 29.93in /  1013.4hPa WNW 1mph /  1.6km/h 3mph /  4.8km/h 90% 0.00in /  0mm 175 W/m2
07:00 47.4 °F /  8.6 °C 44.6 °F /  7 °C 29.92in /  1013.1hPa Calm   2mph /  3.2km/h 90% 0.00in /  0mm 194 W/m2
07:10 47.9 °F /  8.8 °C 45.2 °F /  7.3 °C 29.92in /  1013.1hPa WSW 1mph /  1.6km/h 2mph /  3.2km/h 90% 0.00in /  0mm 207 W/m2
07:20 48.4 °F /  9.1 °C 45.6 °F /  7.6 °C 29.92in /  1013.1hPa Calm   2mph /  3.2km/h 90% 0.00in /  0mm 278 W/m2
07:30 49.2 °F /  9.6 °C 46.1 °F /  7.8 °C 29.92in /  1013.1hPa Calm   2mph /  3.2km/h 89% 0.00in /  0mm 308 W/m2
07:40 49.7 °F /  9.8 °C 46.3 °F /  7.9 °C 29.92in /  1013.1hPa SSW 1mph /  1.6km/h 3mph /  4.8km/h 88% 0.00in /  0mm 327 W/m2
07:50 50.5 °F /  10.3 °C 46.2 °F /  7.9 °C 29.92in /  1013.1hPa NNE 2mph /  3.2km/h 5mph /  8km/h 85% 0.00in /  0mm 372 W/m2
08:00 51.7 °F /  10.9 °C 46.1 °F /  7.8 °C 29.92in /  1013.1hPa NNE 2mph /  3.2km/h 6mph /  9.7km/h 81% 0.00in /  0mm 408 W/m2
08:10 52.4 °F /  11.3 °C 46.5 °F /  8.1 °C 29.92in /  1013.1hPa NNE 2mph /  3.2km/h 7mph /  11.3km/h 80% 0.00in /  0mm 435 W/m2
08:20 53.4 °F /  11.9 °C 47.1 °F /  8.4 °C 29.91in /  1012.8hPa NNE 5mph /  8km/h 8mph /  12.9km/h 79% 0.00in /  0mm 458 W/m2
08:30 54.3 °F /  12.4 °C 47.5 °F /  8.6 °C 29.91in /  1012.8hPa North 5mph /  8km/h 9mph /  14.5km/h 78% 0.00in /  0mm 469 W/m2
08:40 55.1 °F /  12.8 °C 48.1 °F /  8.9 °C 29.91in /  1012.8hPa NNE 2mph /  3.2km/h 7mph /  11.3km/h 77% 0.00in /  0mm 522 W/m2
08:50 56.4 °F /  13.6 °C 48.6 °F /  9.2 °C 29.91in /  1012.8hPa NNE 3mph /  4.8km/h 8mph /  12.9km/h 75% 0.00in /  0mm 577 W/m2
09:00 58.4 °F /  14.7 °C 49.4 °F /  9.7 °C 29.91in /  1012.8hPa NNE 2mph /  3.2km/h 8mph /  12.9km/h 72% 0.00in /  0mm 595 W/m2
09:10 60.2 °F /  15.7 °C 50.8 °F /  10.4 °C 29.90in /  1012.4hPa NNE 5mph /  8km/h 7mph /  11.3km/h 71% 0.00in /  0mm 662 W/m2
Knjazevac, Serbia
Compliments of Weather Underground - 2 mb